sensor_id;sensor_type;location;lat;lon;timestamp;P1;durP1;ratioP1;P2;durP2;ratioP2
13075;SDS011;6604;52.484;13.330;2023-05-10T07:47:55;2.67;;;2.40;;
13075;SDS011;6604;52.484;13.330;2023-05-10T07:50:22;5.13;;;2.70;;
13075;SDS011;6604;52.484;13.330;2023-05-10T07:52:48;3.87;;;2.67;;
13075;SDS011;6604;52.484;13.330;2023-05-10T07:55:15;6.70;;;2.70;;
13075;SDS011;6604;52.484;13.330;2023-05-10T07:57:41;3.20;;;2.53;;
13075;SDS011;6604;52.484;13.330;2023-05-10T08:00:08;6.07;;;3.17;;
13075;SDS011;6604;52.484;13.330;2023-05-10T08:02:35;2.50;;;2.30;;
13075;SDS011;6604;52.484;13.330;2023-05-10T08:05:03;5.90;;;2.70;;
13075;SDS011;6604;52.484;13.330;2023-05-10T08:07:30;2.73;;;2.50;;
13075;SDS011;6604;52.484;13.330;2023-05-10T08:09:56;5.47;;;2.40;;
13075;SDS011;6604;52.484;13.330;2023-05-10T08:12:23;4.87;;;2.47;;
13075;SDS011;6604;52.484;13.330;2023-05-10T08:14:49;2.50;;;2.30;;
13075;SDS011;6604;52.484;13.330;2023-05-10T08:17:16;2.70;;;2.30;;
13075;SDS011;6604;52.484;13.330;2023-05-10T08:19:42;7.70;;;2.30;;
13075;SDS011;6604;52.484;13.330;2023-05-10T08:22:10;3.27;;;2.67;;
13075;SDS011;6604;52.484;13.330;2023-05-10T08:24:37;4.00;;;2.73;;
13075;SDS011;6604;52.484;13.330;2023-05-10T08:27:04;3.93;;;2.67;;
13075;SDS011;6604;52.484;13.330;2023-05-10T08:29:31;4.40;;;2.67;;
13075;SDS011;6604;52.484;13.330;2023-05-10T08:31:57;5.57;;;2.70;;
13075;SDS011;6604;52.484;13.330;2023-05-10T08:34:24;2.50;;;2.30;;
13075;SDS011;6604;52.484;13.330;2023-05-10T08:36:50;3.03;;;2.30;;
13075;SDS011;6604;52.484;13.330;2023-05-10T08:39:18;3.50;;;2.53;;
13075;SDS011;6604;52.484;13.330;2023-05-10T08:41:45;3.03;;;2.80;;
13075;SDS011;6604;52.484;13.330;2023-05-10T08:44:12;2.63;;;2.43;;
13075;SDS011;6604;52.484;13.330;2023-05-10T08:46:40;3.70;;;2.57;;
13075;SDS011;6604;52.484;13.330;2023-05-10T08:49:09;2.43;;;2.23;;
13075;SDS011;6604;52.484;13.330;2023-05-10T08:51:40;2.90;;;2.60;;
13075;SDS011;6604;52.484;13.330;2023-05-10T08:54:07;8.50;;;2.53;;
13075;SDS011;6604;52.484;13.330;2023-05-10T08:56:34;5.43;;;2.70;;
13075;SDS011;6604;52.484;13.330;2023-05-10T08:59:01;6.77;;;2.70;;
13075;SDS011;6604;52.484;13.330;2023-05-10T09:01:28;5.60;;;2.50;;
13075;SDS011;6604;52.484;13.330;2023-05-10T09:03:54;2.60;;;2.40;;
13075;SDS011;6604;52.484;13.330;2023-05-10T09:06:21;5.67;;;2.53;;
13075;SDS011;6604;52.484;13.330;2023-05-10T09:08:48;4.63;;;2.40;;
13075;SDS011;6604;52.484;13.330;2023-05-10T09:11:15;4.03;;;2.77;;
13075;SDS011;6604;52.484;13.330;2023-05-10T09:13:44;5.97;;;2.73;;
13075;SDS011;6604;52.484;13.330;2023-05-10T09:16:10;4.80;;;2.60;;
13075;SDS011;6604;52.484;13.330;2023-05-10T09:18:37;8.67;;;2.90;;
13075;SDS011;6604;52.484;13.330;2023-05-10T09:21:05;5.47;;;2.60;;
13075;SDS011;6604;52.484;13.330;2023-05-10T09:23:32;4.83;;;3.30;;
13075;SDS011;6604;52.484;13.330;2023-05-10T09:26:02;3.10;;;2.90;;
13075;SDS011;6604;52.484;13.330;2023-05-10T09:28:31;3.40;;;2.50;;
13075;SDS011;6604;52.484;13.330;2023-05-10T09:30:59;5.53;;;2.77;;
13075;SDS011;6604;52.484;13.330;2023-05-10T09:33:25;6.47;;;2.60;;
13075;SDS011;6604;52.484;13.330;2023-05-10T09:35:52;4.67;;;2.63;;
13075;SDS011;6604;52.484;13.330;2023-05-10T09:38:18;8.27;;;2.60;;
13075;SDS011;6604;52.484;13.330;2023-05-10T09:40:50;5.10;;;2.67;;
13075;SDS011;6604;52.484;13.330;2023-05-10T09:43:19;2.70;;;2.50;;
13075;SDS011;6604;52.484;13.330;2023-05-10T09:45:46;3.33;;;2.40;;
13075;SDS011;6604;52.484;13.330;2023-05-10T09:48:15;3.23;;;2.60;;
13075;SDS011;6604;52.484;13.330;2023-05-10T09:50:56;3.47;;;2.50;;
13075;SDS011;6604;52.484;13.330;2023-05-10T09:53:23;3.43;;;2.63;;
13075;SDS011;6604;52.484;13.330;2023-05-10T09:55:50;4.57;;;2.40;;
13075;SDS011;6604;52.484;13.330;2023-05-10T09:58:16;5.00;;;2.57;;
13075;SDS011;6604;52.484;13.330;2023-05-10T10:00:43;4.33;;;2.50;;
13075;SDS011;6604;52.484;13.330;2023-05-10T10:03:13;3.97;;;2.40;;
13075;SDS011;6604;52.484;13.330;2023-05-10T10:05:41;5.57;;;2.40;;
13075;SDS011;6604;52.484;13.330;2023-05-10T10:08:09;6.03;;;2.40;;
13075;SDS011;6604;52.484;13.330;2023-05-10T10:10:36;5.37;;;3.13;;
13075;SDS011;6604;52.484;13.330;2023-05-10T10:13:03;3.83;;;2.50;;
13075;SDS011;6604;52.484;13.330;2023-05-10T10:15:30;5.37;;;2.73;;
13075;SDS011;6604;52.484;13.330;2023-05-10T10:17:57;7.27;;;2.70;;
13075;SDS011;6604;52.484;13.330;2023-05-10T10:20:23;6.97;;;2.60;;
13075;SDS011;6604;52.484;13.330;2023-05-10T10:22:51;2.50;;;2.30;;
13075;SDS011;6604;52.484;13.330;2023-05-10T10:25:18;2.40;;;2.20;;
13075;SDS011;6604;52.484;13.330;2023-05-10T10:27:48;2.60;;;2.33;;
13075;SDS011;6604;52.484;13.330;2023-05-10T10:30:21;2.93;;;2.73;;
13075;SDS011;6604;52.484;13.330;2023-05-10T10:35:36;8.77;;;2.70;;
13075;SDS011;6604;52.484;13.330;2023-05-10T10:38:04;2.70;;;2.43;;
13075;SDS011;6604;52.484;13.330;2023-05-10T10:40:33;4.57;;;2.60;;
13075;SDS011;6604;52.484;13.330;2023-05-10T10:45:41;3.30;;;3.00;;
13075;SDS011;6604;52.484;13.330;2023-05-10T10:48:21;6.17;;;2.60;;
13075;SDS011;6604;52.484;13.330;2023-05-10T10:50:51;4.53;;;2.77;;
13075;SDS011;6604;52.484;13.330;2023-05-10T10:53:23;3.03;;;2.73;;
13075;SDS011;6604;52.484;13.330;2023-05-10T10:55:53;3.00;;;2.70;;
13075;SDS011;6604;52.484;13.330;2023-05-10T10:58:28;2.83;;;2.53;;
13075;SDS011;6604;52.484;13.330;2023-05-10T11:01:08;5.50;;;2.60;;
13075;SDS011;6604;52.484;13.330;2023-05-10T11:03:35;2.77;;;2.53;;
13075;SDS011;6604;52.484;13.330;2023-05-10T11:06:01;3.17;;;2.20;;
13075;SDS011;6604;52.484;13.330;2023-05-10T11:08:29;3.43;;;2.60;;
13075;SDS011;6604;52.484;13.330;2023-05-10T11:11:03;4.87;;;2.77;;
13075;SDS011;6604;52.484;13.330;2023-05-10T11:13:32;2.83;;;2.30;;
13075;SDS011;6604;52.484;13.330;2023-05-10T11:16:09;3.07;;;2.47;;
13075;SDS011;6604;52.484;13.330;2023-05-10T11:18:36;6.13;;;3.13;;
13075;SDS011;6604;52.484;13.330;2023-05-10T11:21:02;2.77;;;2.37;;
13075;SDS011;6604;52.484;13.330;2023-05-10T11:23:32;3.33;;;2.30;;
13075;SDS011;6604;52.484;13.330;2023-05-10T11:25:59;5.07;;;2.80;;
13075;SDS011;6604;52.484;13.330;2023-05-10T11:28:26;2.10;;;2.00;;
13075;SDS011;6604;52.484;13.330;2023-05-10T11:30:53;10.73;;;2.67;;
13075;SDS011;6604;52.484;13.330;2023-05-10T11:33:20;4.00;;;2.80;;
13075;SDS011;6604;52.484;13.330;2023-05-10T11:35:47;2.40;;;2.20;;
13075;SDS011;6604;52.484;13.330;2023-05-10T11:38:13;3.73;;;2.60;;
13075;SDS011;6604;52.484;13.330;2023-05-10T11:40:41;5.70;;;2.37;;
13075;SDS011;6604;52.484;13.330;2023-05-10T11:43:08;4.23;;;2.20;;
13075;SDS011;6604;52.484;13.330;2023-05-10T11:45:35;3.47;;;2.30;;
13075;SDS011;6604;52.484;13.330;2023-05-10T11:48:02;6.83;;;2.47;;
13075;SDS011;6604;52.484;13.330;2023-05-10T11:50:28;4.70;;;2.50;;
13075;SDS011;6604;52.484;13.330;2023-05-10T11:52:55;2.97;;;2.30;;
13075;SDS011;6604;52.484;13.330;2023-05-10T11:55:22;3.90;;;2.53;;
13075;SDS011;6604;52.484;13.330;2023-05-10T11:57:52;3.73;;;2.60;;
13075;SDS011;6604;52.484;13.330;2023-05-10T12:00:19;3.40;;;2.33;;
13075;SDS011;6604;52.484;13.330;2023-05-10T12:02:46;6.00;;;2.50;;
13075;SDS011;6604;52.484;13.330;2023-05-10T12:05:12;3.43;;;2.43;;
13075;SDS011;6604;52.484;13.330;2023-05-10T12:07:39;3.70;;;2.17;;
13075;SDS011;6604;52.484;13.330;2023-05-10T12:10:06;3.20;;;2.27;;
13075;SDS011;6604;52.484;13.330;2023-05-10T12:12:39;5.07;;;2.60;;
13075;SDS011;6604;52.484;13.330;2023-05-10T12:15:11;4.00;;;2.70;;
13075;SDS011;6604;52.484;13.330;2023-05-10T12:17:38;3.00;;;2.50;;
13075;SDS011;6604;52.484;13.330;2023-05-10T12:20:14;3.10;;;2.20;;
13075;SDS011;6604;52.484;13.330;2023-05-10T12:22:43;2.83;;;2.53;;
13075;SDS011;6604;52.484;13.330;2023-05-10T12:25:12;4.10;;;2.43;;
13075;SDS011;6604;52.484;13.330;2023-05-10T12:27:38;3.13;;;2.83;;
13075;SDS011;6604;52.484;13.330;2023-05-10T12:30:05;2.50;;;2.30;;
13075;SDS011;6604;52.484;13.330;2023-05-10T12:32:40;5.73;;;2.50;;
13075;SDS011;6604;52.484;13.330;2023-05-10T12:35:07;2.67;;;2.47;;
13075;SDS011;6604;52.484;13.330;2023-05-10T12:37:34;3.43;;;2.60;;
13075;SDS011;6604;52.484;13.330;2023-05-10T12:40:05;3.07;;;2.37;;
13075;SDS011;6604;52.484;13.330;2023-05-10T12:42:31;4.17;;;2.87;;
13075;SDS011;6604;52.484;13.330;2023-05-10T12:44:58;4.27;;;2.57;;
13075;SDS011;6604;52.484;13.330;2023-05-10T12:47:27;2.60;;;2.40;;
13075;SDS011;6604;52.484;13.330;2023-05-10T12:49:55;4.67;;;2.50;;
13075;SDS011;6604;52.484;13.330;2023-05-10T12:52:22;11.10;;;3.33;;
13075;SDS011;6604;52.484;13.330;2023-05-10T12:54:48;6.33;;;2.50;;
13075;SDS011;6604;52.484;13.330;2023-05-10T12:57:17;4.23;;;2.70;;
13075;SDS011;6604;52.484;13.330;2023-05-10T12:59:43;2.70;;;2.47;;
13075;SDS011;6604;52.484;13.330;2023-05-10T13:02:10;3.03;;;2.70;;
13075;SDS011;6604;52.484;13.330;2023-05-10T13:04:36;3.57;;;2.40;;
13075;SDS011;6604;52.484;13.330;2023-05-10T13:07:06;4.47;;;2.47;;
13075;SDS011;6604;52.484;13.330;2023-05-10T13:09:32;2.60;;;2.40;;
13075;SDS011;6604;52.484;13.330;2023-05-10T13:11:59;4.37;;;2.47;;
13075;SDS011;6604;52.484;13.330;2023-05-10T13:14:26;3.57;;;2.50;;
13075;SDS011;6604;52.484;13.330;2023-05-10T13:16:52;4.50;;;2.40;;
13075;SDS011;6604;52.484;13.330;2023-05-10T13:19:19;9.27;;;2.80;;
13075;SDS011;6604;52.484;13.330;2023-05-10T13:21:45;5.43;;;2.90;;
13075;SDS011;6604;52.484;13.330;2023-05-10T13:24:13;3.60;;;3.20;;
13075;SDS011;6604;52.484;13.330;2023-05-10T13:26:40;6.03;;;2.60;;
13075;SDS011;6604;52.484;13.330;2023-05-10T13:29:06;3.07;;;2.57;;
13075;SDS011;6604;52.484;13.330;2023-05-10T13:31:33;3.30;;;2.80;;
13075;SDS011;6604;52.484;13.330;2023-05-10T13:34:00;6.70;;;2.30;;
13075;SDS011;6604;52.484;13.330;2023-05-10T13:36:26;3.73;;;2.97;;
13075;SDS011;6604;52.484;13.330;2023-05-10T13:38:53;3.60;;;2.60;;
13075;SDS011;6604;52.484;13.330;2023-05-10T13:41:20;2.27;;;2.13;;
13075;SDS011;6604;52.484;13.330;2023-05-10T13:43:47;4.33;;;2.33;;
13075;SDS011;6604;52.484;13.330;2023-05-10T13:46:14;3.00;;;2.50;;
13075;SDS011;6604;52.484;13.330;2023-05-10T13:48:41;6.93;;;2.63;;
13075;SDS011;6604;52.484;13.330;2023-05-10T13:51:07;3.77;;;2.80;;
13075;SDS011;6604;52.484;13.330;2023-05-10T13:53:34;3.13;;;2.30;;
13075;SDS011;6604;52.484;13.330;2023-05-10T13:56:00;2.97;;;2.40;;
13075;SDS011;6604;52.484;13.330;2023-05-10T13:58:29;4.47;;;2.50;;
13075;SDS011;6604;52.484;13.330;2023-05-10T14:00:56;4.27;;;2.47;;
13075;SDS011;6604;52.484;13.330;2023-05-10T14:03:22;3.90;;;2.60;;
13075;SDS011;6604;52.484;13.330;2023-05-10T14:05:49;7.10;;;2.60;;
13075;SDS011;6604;52.484;13.330;2023-05-10T14:08:15;3.53;;;2.40;;
13075;SDS011;6604;52.484;13.330;2023-05-10T14:10:42;3.37;;;2.23;;
13075;SDS011;6604;52.484;13.330;2023-05-10T14:13:09;4.90;;;2.33;;
13075;SDS011;6604;52.484;13.330;2023-05-10T14:15:37;2.73;;;2.20;;
13075;SDS011;6604;52.484;13.330;2023-05-10T14:18:03;4.90;;;2.50;;
13075;SDS011;6604;52.484;13.330;2023-05-10T14:20:30;3.13;;;2.43;;
13075;SDS011;6604;52.484;13.330;2023-05-10T14:22:58;2.93;;;2.10;;
13075;SDS011;6604;52.484;13.330;2023-05-10T14:25:25;4.37;;;2.33;;
13075;SDS011;6604;52.484;13.330;2023-05-10T14:27:51;3.10;;;2.30;;
13075;SDS011;6604;52.484;13.330;2023-05-10T14:30:19;3.30;;;2.10;;
13075;SDS011;6604;52.484;13.330;2023-05-10T14:32:47;4.70;;;2.37;;
13075;SDS011;6604;52.484;13.330;2023-05-10T14:35:14;4.37;;;2.20;;
13075;SDS011;6604;52.484;13.330;2023-05-10T14:37:40;3.40;;;2.53;;
13075;SDS011;6604;52.484;13.330;2023-05-10T14:40:07;2.50;;;2.30;;
13075;SDS011;6604;52.484;13.330;2023-05-10T14:42:34;3.67;;;2.30;;
13075;SDS011;6604;52.484;13.330;2023-05-10T14:45:01;5.30;;;2.57;;
13075;SDS011;6604;52.484;13.330;2023-05-10T14:47:27;4.53;;;2.43;;
13075;SDS011;6604;52.484;13.330;2023-05-10T14:49:55;3.93;;;2.33;;
13075;SDS011;6604;52.484;13.330;2023-05-10T14:52:21;4.80;;;2.60;;
13075;SDS011;6604;52.484;13.330;2023-05-10T14:54:48;5.33;;;2.67;;
13075;SDS011;6604;52.484;13.330;2023-05-10T14:57:14;7.57;;;2.90;;
13075;SDS011;6604;52.484;13.330;2023-05-10T14:59:41;3.90;;;2.30;;
13075;SDS011;6604;52.484;13.330;2023-05-10T15:02:07;3.73;;;2.40;;
13075;SDS011;6604;52.484;13.330;2023-05-10T15:04:35;3.50;;;2.30;;
13075;SDS011;6604;52.484;13.330;2023-05-10T15:07:03;3.97;;;2.30;;
13075;SDS011;6604;52.484;13.330;2023-05-10T15:09:29;4.03;;;2.30;;
13075;SDS011;6604;52.484;13.330;2023-05-10T15:11:56;3.80;;;2.30;;
13075;SDS011;6604;52.484;13.330;2023-05-10T15:14:22;3.40;;;2.63;;
13075;SDS011;6604;52.484;13.330;2023-05-10T15:16:49;3.60;;;2.50;;
13075;SDS011;6604;52.484;13.330;2023-05-10T15:19:15;4.23;;;2.33;;
13075;SDS011;6604;52.484;13.330;2023-05-10T15:21:42;5.20;;;2.70;;
13075;SDS011;6604;52.484;13.330;2023-05-10T15:24:10;2.50;;;2.30;;
13075;SDS011;6604;52.484;13.330;2023-05-10T15:26:37;7.63;;;2.80;;
13075;SDS011;6604;52.484;13.330;2023-05-10T15:29:03;4.47;;;2.33;;
13075;SDS011;6604;52.484;13.330;2023-05-10T15:31:30;2.53;;;2.27;;
13075;SDS011;6604;52.484;13.330;2023-05-10T15:33:57;3.33;;;2.40;;
13075;SDS011;6604;52.484;13.330;2023-05-10T15:36:24;3.30;;;2.43;;
13075;SDS011;6604;52.484;13.330;2023-05-10T15:38:50;2.60;;;2.40;;
13075;SDS011;6604;52.484;13.330;2023-05-10T15:41:18;3.20;;;2.90;;
13075;SDS011;6604;52.484;13.330;2023-05-10T15:43:45;2.83;;;2.63;;
13075;SDS011;6604;52.484;13.330;2023-05-10T15:46:11;3.03;;;2.73;;
13075;SDS011;6604;52.484;13.330;2023-05-10T15:48:37;7.83;;;2.53;;
13075;SDS011;6604;52.484;13.330;2023-05-10T15:51:05;5.37;;;2.70;;
13075;SDS011;6604;52.484;13.330;2023-05-10T15:53:31;3.53;;;2.53;;
13075;SDS011;6604;52.484;13.330;2023-05-10T15:55:58;5.13;;;3.13;;
13075;SDS011;6604;52.484;13.330;2023-05-10T15:58:26;3.93;;;2.77;;
13075;SDS011;6604;52.484;13.330;2023-05-10T16:00:52;7.00;;;2.60;;
13075;SDS011;6604;52.484;13.330;2023-05-10T16:03:19;5.00;;;2.90;;
13075;SDS011;6604;52.484;13.330;2023-05-10T16:05:45;9.30;;;3.80;;
13075;SDS011;6604;52.484;13.330;2023-05-10T16:08:12;6.20;;;2.50;;
13075;SDS011;6604;52.484;13.330;2023-05-10T16:10:38;9.73;;;3.00;;
13075;SDS011;6604;52.484;13.330;2023-05-10T16:13:05;5.77;;;3.40;;
13075;SDS011;6604;52.484;13.330;2023-05-10T16:15:33;4.27;;;2.80;;
13075;SDS011;6604;52.484;13.330;2023-05-10T16:18:00;4.13;;;2.57;;
13075;SDS011;6604;52.484;13.330;2023-05-10T16:20:26;4.63;;;2.90;;
13075;SDS011;6604;52.484;13.330;2023-05-10T16:22:54;5.23;;;3.37;;
13075;SDS011;6604;52.484;13.330;2023-05-10T16:25:21;3.17;;;2.90;;
13075;SDS011;6604;52.484;13.330;2023-05-10T16:27:47;5.83;;;3.30;;
13075;SDS011;6604;52.484;13.330;2023-05-10T16:30:15;4.17;;;3.77;;
13075;SDS011;6604;52.484;13.330;2023-05-10T16:32:42;5.43;;;3.87;;
13075;SDS011;6604;52.484;13.330;2023-05-10T16:35:09;4.60;;;4.10;;
13075;SDS011;6604;52.484;13.330;2023-05-10T16:37:35;4.63;;;4.23;;
13075;SDS011;6604;52.484;13.330;2023-05-10T16:40:02;5.23;;;4.30;;
13075;SDS011;6604;52.484;13.330;2023-05-10T16:42:29;5.07;;;4.40;;
13075;SDS011;6604;52.484;13.330;2023-05-10T16:44:56;4.23;;;3.83;;
13075;SDS011;6604;52.484;13.330;2023-05-10T16:47:22;8.57;;;4.67;;
13075;SDS011;6604;52.484;13.330;2023-05-10T16:49:52;4.70;;;4.30;;
13075;SDS011;6604;52.484;13.330;2023-05-10T16:52:18;7.07;;;4.70;;
13075;SDS011;6604;52.484;13.330;2023-05-10T16:54:45;5.57;;;4.40;;
13075;SDS011;6604;52.484;13.330;2023-05-10T16:57:11;7.67;;;4.40;;
13075;SDS011;6604;52.484;13.330;2023-05-10T16:59:37;6.40;;;4.40;;
13075;SDS011;6604;52.484;13.330;2023-05-10T17:02:05;5.67;;;5.00;;
13075;SDS011;6604;52.484;13.330;2023-05-10T17:04:31;5.77;;;4.60;;
13075;SDS011;6604;52.484;13.330;2023-05-10T17:06:59;7.57;;;4.70;;
13075;SDS011;6604;52.484;13.330;2023-05-10T17:09:26;4.83;;;4.43;;
13075;SDS011;6604;52.484;13.330;2023-05-10T17:11:52;5.33;;;4.83;;
13075;SDS011;6604;52.484;13.330;2023-05-10T17:14:19;4.80;;;4.30;;
13075;SDS011;6604;52.484;13.330;2023-05-10T17:16:45;5.90;;;4.40;;
13075;SDS011;6604;52.484;13.330;2023-05-10T17:19:12;7.77;;;4.77;;
13075;SDS011;6604;52.484;13.330;2023-05-10T17:21:38;5.73;;;5.20;;
13075;SDS011;6604;52.484;13.330;2023-05-10T17:24:07;6.10;;;4.70;;
13075;SDS011;6604;52.484;13.330;2023-05-10T17:26:33;6.73;;;4.57;;
13075;SDS011;6604;52.484;13.330;2023-05-10T17:29:00;5.23;;;4.77;;
13075;SDS011;6604;52.484;13.330;2023-05-10T17:31:27;7.03;;;4.90;;
13075;SDS011;6604;52.484;13.330;2023-05-10T17:33:53;4.83;;;4.23;;
13075;SDS011;6604;52.484;13.330;2023-05-10T17:36:20;6.43;;;4.87;;
13075;SDS011;6604;52.484;13.330;2023-05-10T17:38:46;5.77;;;4.50;;
13075;SDS011;6604;52.484;13.330;2023-05-10T17:41:15;5.20;;;4.70;;
13075;SDS011;6604;52.484;13.330;2023-05-10T17:43:41;7.23;;;4.60;;
13075;SDS011;6604;52.484;13.330;2023-05-10T17:46:08;5.00;;;4.50;;
13075;SDS011;6604;52.484;13.330;2023-05-10T17:48:34;5.87;;;4.40;;
13075;SDS011;6604;52.484;13.330;2023-05-10T17:51:01;5.83;;;5.23;;
13075;SDS011;6604;52.484;13.330;2023-05-10T17:53:28;8.20;;;5.00;;
13075;SDS011;6604;52.484;13.330;2023-05-10T17:55:55;6.40;;;4.80;;
13075;SDS011;6604;52.484;13.330;2023-05-10T17:58:24;4.93;;;4.33;;
13075;SDS011;6604;52.484;13.330;2023-05-10T18:00:50;7.83;;;5.00;;
13075;SDS011;6604;52.484;13.330;2023-05-10T18:03:17;5.20;;;4.70;;
13075;SDS011;6604;52.484;13.330;2023-05-10T18:05:43;5.10;;;4.60;;
13075;SDS011;6604;52.484;13.330;2023-05-10T18:08:10;7.00;;;4.53;;
13075;SDS011;6604;52.484;13.330;2023-05-10T18:10:37;5.30;;;4.80;;
13075;SDS011;6604;52.484;13.330;2023-05-10T18:13:04;5.30;;;4.60;;
13075;SDS011;6604;52.484;13.330;2023-05-10T18:15:32;6.93;;;4.80;;
13075;SDS011;6604;52.484;13.330;2023-05-10T18:18:00;8.20;;;4.70;;
13075;SDS011;6604;52.484;13.330;2023-05-10T18:20:26;6.30;;;4.60;;
13075;SDS011;6604;52.484;13.330;2023-05-10T18:22:53;6.20;;;5.60;;
13075;SDS011;6604;52.484;13.330;2023-05-10T18:25:29;5.97;;;4.60;;
13075;SDS011;6604;52.484;13.330;2023-05-10T18:27:56;7.43;;;4.40;;
13075;SDS011;6604;52.484;13.330;2023-05-10T18:30:22;7.03;;;4.70;;
13075;SDS011;6604;52.484;13.330;2023-05-10T18:32:50;4.97;;;4.33;;
13075;SDS011;6604;52.484;13.330;2023-05-10T18:35:17;7.33;;;4.90;;
13075;SDS011;6604;52.484;13.330;2023-05-10T18:37:44;6.97;;;5.20;;
13075;SDS011;6604;52.484;13.330;2023-05-10T18:40:11;5.50;;;4.30;;
13075;SDS011;6604;52.484;13.330;2023-05-10T18:42:38;7.13;;;5.10;;
13075;SDS011;6604;52.484;13.330;2023-05-10T18:45:06;6.17;;;4.93;;
13075;SDS011;6604;52.484;13.330;2023-05-10T18:47:32;8.27;;;6.03;;
13075;SDS011;6604;52.484;13.330;2023-05-10T18:50:01;6.87;;;4.73;;
13075;SDS011;6604;52.484;13.330;2023-05-10T18:52:28;6.50;;;4.90;;
13075;SDS011;6604;52.484;13.330;2023-05-10T18:54:55;8.40;;;5.23;;
13075;SDS011;6604;52.484;13.330;2023-05-10T18:57:21;6.67;;;5.03;;
13075;SDS011;6604;52.484;13.330;2023-05-10T18:59:48;6.17;;;5.40;;
13075;SDS011;6604;52.484;13.330;2023-05-10T19:02:14;6.20;;;4.93;;
13075;SDS011;6604;52.484;13.330;2023-05-10T19:04:41;5.73;;;5.13;;
13075;SDS011;6604;52.484;13.330;2023-05-10T19:07:09;8.17;;;4.90;;
13075;SDS011;6604;52.484;13.330;2023-05-10T19:09:36;9.70;;;6.00;;
13075;SDS011;6604;52.484;13.330;2023-05-10T19:12:02;8.13;;;5.67;;
13075;SDS011;6604;52.484;13.330;2023-05-10T19:14:29;7.00;;;5.40;;
13075;SDS011;6604;52.484;13.330;2023-05-10T19:16:56;6.60;;;5.50;;
13075;SDS011;6604;52.484;13.330;2023-05-10T19:19:23;6.83;;;5.30;;
13075;SDS011;6604;52.484;13.330;2023-05-10T19:21:50;9.33;;;5.70;;
13075;SDS011;6604;52.484;13.330;2023-05-10T19:24:18;7.97;;;6.00;;
13075;SDS011;6604;52.484;13.330;2023-05-10T19:26:47;5.77;;;5.13;;
13075;SDS011;6604;52.484;13.330;2023-05-10T19:29:14;9.00;;;6.93;;
13075;SDS011;6604;52.484;13.330;2023-05-10T19:31:40;8.97;;;5.03;;
13075;SDS011;6604;52.484;13.330;2023-05-10T19:34:07;5.83;;;5.23;;
13075;SDS011;6604;52.484;13.330;2023-05-10T19:36:33;8.87;;;6.17;;
13075;SDS011;6604;52.484;13.330;2023-05-10T19:39:00;7.33;;;5.40;;
13075;SDS011;6604;52.484;13.330;2023-05-10T19:41:28;9.83;;;6.23;;
13075;SDS011;6604;52.484;13.330;2023-05-10T19:43:55;6.43;;;5.83;;
13075;SDS011;6604;52.484;13.330;2023-05-10T19:46:22;11.20;;;6.47;;
13075;SDS011;6604;52.484;13.330;2023-05-10T19:48:48;7.10;;;5.23;;
13075;SDS011;6604;52.484;13.330;2023-05-10T19:51:24;7.37;;;5.90;;
13075;SDS011;6604;52.484;13.330;2023-05-10T19:53:55;9.27;;;5.80;;
13075;SDS011;6604;52.484;13.330;2023-05-10T19:56:22;7.23;;;5.90;;
13075;SDS011;6604;52.484;13.330;2023-05-10T19:58:52;7.93;;;6.37;;
13075;SDS011;6604;52.484;13.330;2023-05-10T20:01:19;8.73;;;6.27;;
13075;SDS011;6604;52.484;13.330;2023-05-10T20:03:46;7.50;;;6.37;;
13075;SDS011;6604;52.484;13.330;2023-05-10T20:06:12;6.30;;;5.70;;
13075;SDS011;6604;52.484;13.330;2023-05-10T20:08:39;9.20;;;6.70;;
13075;SDS011;6604;52.484;13.330;2023-05-10T20:11:07;9.00;;;5.90;;
13075;SDS011;6604;52.484;13.330;2023-05-10T20:13:34;6.57;;;5.83;;
13075;SDS011;6604;52.484;13.330;2023-05-10T20:16:05;8.00;;;5.97;;
13075;SDS011;6604;52.484;13.330;2023-05-10T20:18:31;24.07;;;17.50;;
13075;SDS011;6604;52.484;13.330;2023-05-10T20:20:59;28.30;;;19.43;;
13075;SDS011;6604;52.484;13.330;2023-05-10T20:23:26;7.93;;;7.07;;
13075;SDS011;6604;52.484;13.330;2023-05-10T20:25:53;8.93;;;6.33;;
13075;SDS011;6604;52.484;13.330;2023-05-10T20:28:20;6.63;;;6.00;;
13075;SDS011;6604;52.484;13.330;2023-05-10T20:30:51;6.67;;;5.87;;
13075;SDS011;6604;52.484;13.330;2023-05-10T20:33:20;7.33;;;6.20;;
13075;SDS011;6604;52.484;13.330;2023-05-10T20:35:46;7.87;;;6.23;;
13075;SDS011;6604;52.484;13.330;2023-05-10T20:38:13;8.17;;;6.10;;
13075;SDS011;6604;52.484;13.330;2023-05-10T20:40:40;8.27;;;6.73;;
13075;SDS011;6604;52.484;13.330;2023-05-10T20:43:07;8.70;;;6.53;;
13075;SDS011;6604;52.484;13.330;2023-05-10T20:45:33;7.97;;;6.70;;
13075;SDS011;6604;52.484;13.330;2023-05-10T20:48:03;7.43;;;6.50;;
13075;SDS011;6604;52.484;13.330;2023-05-10T20:50:31;56.13;;;30.17;;
13075;SDS011;6604;52.484;13.330;2023-05-10T20:52:59;8.93;;;7.50;;
13075;SDS011;6604;52.484;13.330;2023-05-10T20:55:26;8.03;;;6.23;;
13075;SDS011;6604;52.484;13.330;2023-05-10T20:57:54;7.93;;;6.57;;
13075;SDS011;6604;52.484;13.330;2023-05-10T21:00:20;8.73;;;6.97;;
13075;SDS011;6604;52.484;13.330;2023-05-10T21:02:49;10.30;;;7.00;;
13075;SDS011;6604;52.484;13.330;2023-05-10T21:05:15;10.20;;;7.70;;
13075;SDS011;6604;52.484;13.330;2023-05-10T21:07:48;9.17;;;6.83;;
13075;SDS011;6604;52.484;13.330;2023-05-10T21:10:18;7.63;;;6.37;;
13075;SDS011;6604;52.484;13.330;2023-05-10T21:12:44;7.70;;;6.87;;
13075;SDS011;6604;52.484;13.330;2023-05-10T21:15:11;7.20;;;6.20;;
13075;SDS011;6604;52.484;13.330;2023-05-10T21:17:44;7.70;;;6.37;;
13075;SDS011;6604;52.484;13.330;2023-05-10T21:20:13;7.37;;;6.37;;
13075;SDS011;6604;52.484;13.330;2023-05-10T21:22:40;6.67;;;6.00;;
13075;SDS011;6604;52.484;13.330;2023-05-10T21:25:08;7.43;;;6.07;;
13075;SDS011;6604;52.484;13.330;2023-05-10T21:27:35;7.10;;;6.40;;
13075;SDS011;6604;52.484;13.330;2023-05-10T21:30:02;10.53;;;6.30;;
